x

Port Aransas, Tx (ptat2) Weather Station

3:00am - Mon 18th Jun 2018 All times are CDT. -5 hours from GMT.

  • Wind
    13mph, 14mph gusts
  • Sea Temp 85°f
  • Air Temp 81°f
  • Sea Pressure 1010.4mb
  • Port Aransas, Tx
  • Port Aransas, Tx

More Historic Weather Station data

Upgrade to MSW Pro to gain access to the past 30 days of data for over 8000 Wavebouys and Weather Stations around the globe.

Join

Comparision Forecast

View Surf forecast
   
Mon 06/18 3:00am 13 14 mph 1010.4mb 85f 81f
2:00am 13 15 mph 1011.1mb 85f 81f
1:00am 16 18 mph 1011.7mb 85f 78f
12:00am 11 13 mph 1012mb 86f 81f
Sun 06/17 11:00pm 14 16 mph 1011.8mb 86f 82f
10:00pm 13 15 mph 1011.1mb 86f 82f
9:00pm 14 16 mph 1010.3mb 86f 82f
8:00pm 15 16 mph 1009.9mb 86f 82f
7:00pm 13 14 mph 1010.3mb 86f 82f
6:00pm 14 15 mph 1010mb 86f 83f
5:00pm 15 16 mph 1009.9mb 86f 82f
4:00pm 14 15 mph 1010.2mb 87f 82f
3:00pm 11 13 mph 1010.8mb 86f 82f
2:00pm 10 11 mph 1011mb 86f 82f
1:00pm 8 9 mph 1011.6mb 86f 81f
12:00pm 8 8 mph 1011.8mb 85f 82f
11:00am 7 8 mph 1011.7mb 84f 82f
10:00am 7 8 mph 1011.5mb 84f 81f
9:00am 7 8 mph 1011.4mb 83f 82f
8:00am 6 7 mph 1010.6mb 83f 81f
7:00am 10 13 mph 1010.2mb 83f 79f
6:00am 11 13 mph 1009.9mb 84f 81f
5:00am 13 14 mph 1009.8mb 84f 81f
4:00am 16 17 mph 1009.9mb 84f 81f
3:00am 15 17 mph 1010.4mb 84f 81f
2:00am 18 21 mph 1010.7mb 84f 81f
1:00am 16 18 mph 1011.3mb 84f 81f
12:00am 15 16 mph 1011.7mb 84f 81f
Sat 06/16 11:00pm 20 21 mph 1011.8mb 84f 82f
10:00pm 20 22 mph 1011.2mb 84f 82f
9:00pm 16 18 mph 1010.7mb 85f 82f
8:00pm 18 20 mph 1010.5mb 85f 82f
7:00pm 22 24 mph 1010.5mb 84f 82f
6:00pm 21 24 mph 1010.3mb 84f 82f
5:00pm 20 21 mph 1010.7mb 84f 83f
4:00pm 20 21 mph 1011mb 84f 82f
3:00pm 17 18 mph 1011.1mb 84f 82f
2:00pm 17 20 mph 1011.4mb 83f 82f
1:00pm 14 14 mph 1012mb 83f 82f
12:00pm 11 13 mph 1012.2mb 82f 82f
11:00am 14 15 mph 1012.2mb 82f 82f
10:00am 15 17 mph 1012mb 83f 81f
9:00am 16 18 mph 1011.7mb 83f 82f
8:00am 16 17 mph 1011.3mb 83f 82f
7:00am 16 17 mph 1010.8mb 83f 81f
6:00am 15 17 mph 1010.5mb 82f 82f
5:00am 16 17 mph 1010.7mb 83f 81f
4:00am 20 21 mph 1011.1mb 83f 81f
3:00am 21 23 mph 1011.4mb 83f 82f
2:00am 23 26 mph 1011.8mb 84f 82f
1:00am 20 23 mph 1012.1mb 84f 82f
12:00am 21 24 mph 1012.2mb 84f 82f
Fri 06/15 11:00pm 20 22 mph 1012.1mb 84f 82f
10:00pm 20 22 mph 1011.6mb 85f 82f
9:00pm 20 22 mph 1011.1mb 85f 82f
8:00pm 17 21 mph 1011.2mb 85f 82f
7:00pm 15 17 mph 1010.9mb 85f 82f
6:00pm 16 17 mph 1011.1mb 85f 82f
5:00pm 17 18 mph 1011.6mb 85f 83f
4:00pm 16 17 mph 1012.3mb 84f 83f
3:00pm 13 16 mph 1012.4mb 84f 82f
2:00pm 13 14 mph 1012.9mb 83f 82f
1:00pm 14 15 mph 1013.5mb 83f 82f
12:00pm 11 14 mph 1013.6mb 83f 82f
11:00am 8 8 mph 1013.4mb 84f 82f
10:00am 10 11 mph 1013.6mb 84f 82f
9:00am 7 8 mph 1013.6mb 84f 82f
8:00am 9 10 mph 1013.1mb 84f 82f
7:00am 10 11 mph 1012.8mb 85f 81f
6:00am 16 17 mph 1012.8mb 85f 80f
5:00am 15 17 mph 1012.8mb 85f 81f
4:00am 18 20 mph 1013.1mb 85f 82f
3:00am 17 18 mph 1013.6mb 85f 81f
2:00am 22 24 mph 1013.5mb 85f 82f
1:00am 17 20 mph 1013.9mb 85f 82f
12:00am 16 18 mph 1013.8mb 85f 82f
Thu 06/14 11:00pm 17 20 mph 1013.8mb 86f 82f
10:00pm 20 23 mph 1013.5mb 86f 82f
9:00pm 17 20 mph 1012.9mb 86f 82f
8:00pm 17 20 mph 1013mb 87f 82f
7:00pm 17 20 mph 1013.2mb 87f 82f
6:00pm 14 16 mph 1013.6mb 87f 83f
5:00pm 15 15 mph 1014mb 87f 82f
4:00pm 15 16 mph 1014.4mb 87f 82f
3:00pm 13 14 mph 1015.1mb 86f 82f
2:00pm 11 13 mph 1015.5mb 85f 82f
1:00pm 9 9 mph 1016.2mb 85f 82f
12:00pm 7 8 mph 1016.7mb 84f 82f
11:00am 8 9 mph 1016.5mb 84f 83f
10:00am 7 7 mph 1016.6mb 84f 82f